Data for 01/16/2017

Time Sea-Level Adjusted Pressure Absolute Pressure Temperature Relative Humidity Dew Point   
(mb) (inHg) (mb) (inHg) (C) (F) (%) (C) (F)
00:05 1023 30.21 852 25.16 -8.3 17 58 -15.3 4.5
00:10 1023 30.21 852 25.16 -8.6 16.6 60 -15.1 4.9
00:15 1023 30.21 852 25.16 -8.8 16.3 59 -15.3 4.4
00:20 1023 30.21 852 25.16 -8.5 16.7 58 -15.3 4.5
00:25 1023 30.21 852 25.16 -8.5 16.7 57 -15.5 4.1
00:30 1023 30.21 852 25.16 -8.6 16.5 57 -15.7 3.8
00:35 1023 30.21 852 25.16 -8.8 16.2 59 -15.3 4.4
00:40 1023 30.21 852 25.16 -8.8 16.2 60 -15.2 4.7
00:45 1023 30.21 852 25.16 -8.5 16.8 56 -15.7 3.7
00:50 1023 30.21 852 25.16 -8.1 17.4 57 -15.2 4.6
00:55 1023 30.21 852 25.16 -8.5 16.7 58 -15.3 4.5
01:00 1023 30.21 852 25.16 -8.6 16.6 58 -15.4 4.2
01:05 1023 30.21 852 25.16 -9.1 15.7 60 -15.4 4.2
01:10 1023 30.21 852 25.16 -9.3 15.3 61 -15.4 4.3
01:15 1023 30.21 852 25.16 -8.9 16 59 -15.5 4.1
01:20 1023 30.21 852 25.16 -8.4 16.8 58 -15.3 4.4
01:25 1023 30.21 852 25.16 -8.4 17 58 -15.1 4.7
01:30 1023 30.21 852 25.16 -8.4 16.9 58 -15.2 4.6
01:35 1023 30.21 852 25.16 -8.4 16.9 58 -15.2 4.6
01:40 1023 30.21 852 25.16 -8.4 16.9 59 -15.1 4.9
01:45 1023 30.21 852 25.16 -8.6 16.5 61 -14.9 5.1
01:50 1023 30.21 852 25.16 -8.8 16.1 62 -14.8 5.3
01:55 1023 30.21 852 25.16 -9 15.9 60 -15.3 4.4
02:00 1023 30.21 852 25.16 -9 15.7 60 -15.4 4.3
02:05 1023 30.21 852 25.16 -9.1 15.7 61 -15.3 4.4
02:10 1023 30.21 852 25.16 -9.1 15.7 61 -15.3 4.4
02:15 1023 30.21 852 25.16 -9.1 15.6 60 -15.5 4.1
02:20 1023 30.21 852 25.16 -9 15.7 59 -15.6 3.9
02:25 1023 30.21 852 25.16 -9 15.8 59 -15.5 4
02:30 1023 30.21 852 25.16 -9.2 15.5 60 -15.6 3.9
02:35 1023 30.21 852 25.16 -9.3 15.3 61 -15.5 4.1
02:40 1023 30.21 852 25.16 -9.4 15.1 59 -16 3.2
02:45 1023 30.21 852 25.16 -9.5 14.9 60 -16 3.2
02:50 1023 30.21 852 25.16 -9.2 15.4 59 -15.9 3.3
02:55 1023 30.21 852 25.16 -9.2 15.5 59 -15.8 3.6
03:00 1023 30.21 852 25.16 -9 15.8 57 -16.1 3
03:05 1023 30.21 852 25.16 -9.1 15.6 58 -15.9 3.4
03:10 1023 30.21 852 25.16 -9.5 14.9 60 -15.9 3.4
03:15 1023 30.21 852 25.16 -9.8 14.3 60 -16.2 2.8
03:20 1023 30.21 852 25.16 -9.4 15 59 -16.1 3.1
03:25 1023 30.21 852 25.16 -9.4 15 58 -16.2 2.8
03:30 1022 30.18 852 25.16 -9.1 15.6 57 -16.2 2.8
03:35 1022 30.18 852 25.16 -8.9 16 56 -16.1 3
03:40 1023 30.21 852 25.16 -9 15.8 56 -16.3 2.7
03:45 1023 30.21 852 25.16 -8.9 16 55 -16.5 2.4
03:50 1023 30.21 852 25.16 -8.7 16.4 54 -16.3 2.6
03:55 1023 30.21 852 25.16 -8.8 16.2 55 -16.3 2.7
04:00 1023 30.21 852 25.16 -8.9 15.9 55 -16.4 2.5
04:05 1023 30.21 852 25.16 -8.9 16 55 -16.4 2.4
04:10 1023 30.21 852 25.16 -9 15.7 56 -16.4 2.5
04:15 1023 30.21 852 25.16 -9.5 14.9 58 -16.3 2.6
04:20 1023 30.21 852 25.16 -10.1 13.8 59 -16.6 2.1
04:25 1023 30.21 852 25.16 -10.4 13.3 61 -16.6 2
04:30 1023 30.21 852 25.16 -10.8 12.6 62 -16.6 2.1
04:35 1023 30.21 852 25.16 -11.3 11.8 64 -16.8 1.7
04:40 1023 30.21 852 25.16 -11.4 11.5 65 -16.8 1.8
04:45 1023 30.21 852 25.16 -11.3 11.6 65 -16.7 1.9
04:50 1023 30.21 852 25.16 -11.1 12 64 -16.7 1.9
04:55 1023 30.21 852 25.16 -11.2 11.9 64 -16.8 1.8
05:00 1023 30.21 852 25.16 -11.4 11.5 65 -16.7 1.9
05:05 1023 30.21 853 25.19 -11.4 11.5 66 -16.5 2.3
05:10 1023 30.21 853 25.19 -11.2 11.8 66 -16.4 2.4
05:15 1023 30.21 853 25.19 -11.2 11.8 63 -16.9 1.6
05:20 1023 30.21 853 25.19 -11.3 11.6 62 -17.2 1.1
05:25 1023 30.21 853 25.19 -11.3 11.6 62 -17.2 1.1
05:30 1023 30.21 853 25.19 -11.3 11.7 63 -17 1.4
05:35 1023 30.21 853 25.19 -11.3 11.7 64 -16.9 1.6
05:40 1023 30.21 853 25.19 -11.7 11 67 -16.7 1.9
05:45 1023 30.21 853 25.19 -12.2 10 69 -16.8 1.7
05:50 1023 30.21 853 25.19 -11.9 10.5 68 -16.7 2
05:55 1023 30.21 853 25.19 -11.3 11.7 64 -16.8 1.8
06:00 1023 30.21 852 25.16 -11.7 11 65 -17 1.5
06:05 1023 30.21 852 25.16 -11.8 10.9 64 -17.2 1
06:10 1023 30.21 853 25.19 -11.6 11.1 65 -17 1.5
06:15 1023 30.21 853 25.19 -11.2 11.9 63 -16.8 1.7
06:20 1023 30.21 853 25.19 -11 12.2 64 -16.5 2.4
06:25 1023 30.21 853 25.19 -11 12.2 64 -16.5 2.2
06:30 1023 30.21 853 25.19 -10.6 12.9 61 -16.7 1.9
06:35 1023 30.21 853 25.19 -10.1 13.9 59 -16.6 2
06:40 1023 30.21 853 25.19 -9.9 14.2 59 -16.4 2.5
06:45 1023 30.21 853 25.19 -10.5 13.1 62 -16.4 2.5
06:50 1023 30.21 853 25.19 -11.2 11.8 64 -16.7 2
06:55 1023 30.21 852 25.16 -11 12.2 62 -17 1.4
07:00 1023 30.21 852 25.16 -10 13.9 59 -16.7 2
07:05 1023 30.21 852 25.16 -9.5 14.8 57 -16.5 2.2
07:10 1023 30.21 852 25.16 -10 13.9 59 -16.5 2.3
07:15 1023 30.21 852 25.16 -10.7 12.7 62 -16.8 1.8
07:20 1023 30.21 852 25.16 -11.2 11.8 63 -17 1.5
07:25 1023 30.21 852 25.16 -11.6 11.1 65 -16.9 1.6
07:30 1023 30.21 852 25.16 -11.4 11.5 62 -17.3 0.8
07:35 1023 30.21 852 25.16 -10.8 12.5 61 -17 1.5
07:40 1023 30.21 852 25.16 -10.4 13.2 60 -16.9 1.6
07:45 1023 30.21 852 25.16 -10.6 12.8 60 -16.9 1.5
07:50 1023 30.21 852 25.16 -11.2 11.8 62 -17.2 1.1
07:55 1023 30.21 852 25.16 -11.3 11.7 62 -17.2 1
08:00 1023 30.21 852 25.16 -11.3 11.8 62 -17.2 1
08:05 1023 30.21 852 25.16 -11.2 11.9 62 -17.2 1.1
08:10 1023 30.21 852 25.16 -10.9 12.4 61 -17 1.4
08:15 1023 30.21 853 25.19 -10.9 12.4 61 -16.9 1.5
08:20 1023 30.21 853 25.19 -11.2 11.9 63 -16.9 1.6
08:25 1023 30.21 853 25.19 -11 12.2 62 -16.9 1.6
08:30 1023 30.21 853 25.19 -10.3 13.5 60 -16.6 2.2
08:35 1024 30.24 853 25.19 -10.1 13.9 58 -16.9 1.6
08:40 1024 30.24 853 25.19 -10.8 12.5 61 -16.9 1.5
08:45 1024 30.24 853 25.19 -10.6 12.9 60 -17 1.4
08:50 1024 30.24 853 25.19 -9.9 14.1 55 -17.3 0.8
08:55 1024 30.24 853 25.19 -10.5 13 59 -17.2 1.1
09:00 1024 30.24 853 25.19 -10.5 13.2 57 -17.4 0.6
09:05 1024 30.24 853 25.19 -9.9 14.1 56 -17.2 1
09:10 1024 30.24 853 25.19 -9.6 14.7 55 -17 1.3
09:15 1024 30.24 853 25.19 -9.8 14.3 57 -16.8 1.8
09:20 1023 30.21 853 25.19 -9.7 14.5 57 -16.7 2
09:25 1023 30.21 853 25.19 -9.5 14.9 56 -16.7 2
09:30 1023 30.21 853 25.19 -9 15.8 54 -16.7 2
09:35 1023 30.21 852 25.16 -8 17.7 51 -16.5 2.3
09:40 1023 30.21 853 25.19 -7.4 18.8 49 -16.3 2.7
09:45 1023 30.21 852 25.16 -6.7 20 48 -16.1 3.1
09:50 1023 30.21 852 25.16 -6.6 20 48 -16 3.2
09:55 1023 30.21 852 25.16 -6.4 20.4 47 -16.1 3.1
10:00 1023 30.21 852 25.16 -7.2 19.1 50 -15.8 3.5
10:05 1023 30.21 852 25.16 -7.9 17.7 51 -16.4 2.5
10:10 1023 30.21 852 25.16 -7.3 18.8 49 -16.3 2.7
10:15 1023 30.21 852 25.16 -6.6 20.2 47 -16.1 2.9
10:20 1023 30.21 852 25.16 -6.1 21 46 -15.9 3.4
10:25 1023 30.21 852 25.16 -5.8 21.5 46 -15.7 3.8
10:30 1023 30.21 852 25.16 -5.5 22.1 45 -15.8 3.6
10:35 1023 30.21 852 25.16 -5.5 22.1 46 -15.4 4.3
10:40 1023 30.21 852 25.16 -5.4 22.3 45 -15.6 3.9
10:45 1023 30.21 852 25.16 -5 23.1 46 -15 5
10:50 1023 30.21 852 25.16 -4.6 23.6 44 -15.2 4.7
10:55 1023 30.21 853 25.19 -4.1 24.7 42 -15.1 4.8
11:00 1023 30.21 853 25.19 -3.4 25.9 38 -15.7 3.7
11:05 1023 30.21 853 25.19 -3.2 26.3 39 -15.4 4.3
11:10 1023 30.21 853 25.19 -3 26.5 37 -15.7 3.8
11:15 1023 30.21 853 25.19 -3.4 25.9 40 -15 4.9
11:20 1023 30.21 853 25.19 -4.2 24.4 46 -14.3 6.3
11:25 1023 30.21 853 25.19 -5 23.1 44 -15.5 4.1
11:30 1023 30.21 853 25.19 -4.4 24 44 -14.9 5.1
11:35 1023 30.21 853 25.19 -4.9 23.2 46 -14.9 5.2
11:40 1023 30.21 853 25.19 -4.4 24.1 44 -15 5
11:45 1023 30.21 853 25.19 -4.3 24.3 42 -15.3 4.5
11:50 1024 30.24 853 25.19 -5 23 46 -15 5
11:55 1024 30.24 853 25.19 -5.2 22.6 46 -15.2 4.7
12:00 1024 30.24 853 25.19 -5.5 22.2 47 -15.2 4.7
12:05 1024 30.24 853 25.19 -5.5 22 45 -15.7 3.8
12:10 1024 30.24 853 25.19 -6 21.3 48 -15.4 4.2
12:15 1023 30.21 853 25.19 -6.5 20.4 49 -15.5 4.1
12:20 1023 30.21 852 25.16 -7 19.4 51 -15.6 4
12:25 1023 30.21 853 25.19 -6.7 19.9 48 -15.9 3.4
12:30 1023 30.21 852 25.16 -7.1 19.2 51 -15.6 3.9
12:35 1023 30.21 852 25.16 -7.2 19 51 -15.7 3.7
12:40 1023 30.21 852 25.16 -7 19.4 51 -15.5 4.1
12:45 1023 30.21 852 25.16 -6.5 20.3 49 -15.5 4
12:50 1023 30.21 852 25.16 -5.4 22.3 45 -15.6 3.9
12:55 1023 30.21 852 25.16 -5 23 46 -15 5
13:00 1023 30.21 852 25.16 -4.6 23.7 43 -15.5 4
13:05 1023 30.21 852 25.16 -4.7 23.5 41 -16 3.3
13:10 1022 30.18 852 25.16 -4.4 24 40 -16 3.3
13:15 1022 30.18 852 25.16 -4.1 24.6 41 -15.6 3.8
13:20 1022 30.18 851 25.13 -3.7 25.4 40 -15.5 4.1
13:25 1022 30.18 851 25.13 -3.3 26 40 -15 4.9
13:30 1022 30.18 851 25.13 -3.3 26 40 -15 5
13:35 1022 30.18 851 25.13 -3.1 26.4 39 -15.2 4.7
13:40 1022 30.18 851 25.13 -3.1 26.4 41 -14.8 5.4
13:45 1022 30.18 851 25.13 -3.2 26.3 40 -15 5.1
13:50 1022 30.18 851 25.13 -2.7 27.2 38 -15.2 4.7
13:55 1022 30.18 851 25.13 -2.3 27.8 37 -15.1 4.8
14:00 1022 30.18 851 25.13 -2.4 27.8 37 -15 5
14:05 1022 30.18 851 25.13 -2.8 26.9 37 -15.5 4.1
14:10 1022 30.18 851 25.13 -3 26.7 38 -15.3 4.5
14:15 1022 30.18 851 25.13 -2.7 27.2 40 -14.5 5.9
14:20 1022 30.18 851 25.13 -2.4 27.7 39 -14.7 5.6
14:25 1022 30.18 851 25.13 -2.5 27.4 38 -15 5
14:30 1022 30.18 851 25.13 -2.2 28.1 36 -15.5 4.2
14:35 1022 30.18 851 25.13 -1.8 28.8 36 -14.9 5.1
14:40 1022 30.18 851 25.13 -1.8 28.7 36 -15.1 4.8
14:45 1022 30.18 851 25.13 -2 28.4 37 -14.9 5.1
14:50 1022 30.18 851 25.13 -2.8 27 37 -15.7 3.7
14:55 1022 30.18 851 25.13 -3.4 25.8 40 -15.3 4.4
15:00 1022 30.18 851 25.13 -3.7 25.3 41 -15.2 4.6
15:05 1022 30.18 851 25.13 -3.8 25.1 40 -15.5 4.1
15:10 1022 30.18 851 25.13 -3.3 26 39 -15.3 4.4
15:15 1022 30.18 851 25.13 -3.2 26.3 38 -15.5 4.1
15:20 1022 30.18 851 25.13 -3.4 25.9 39 -15.3 4.5
15:25 1022 30.18 851 25.13 -3.3 26.1 40 -15.1 4.9
15:30 1022 30.18 851 25.13 -3.1 26.5 39 -15.1 4.8
15:35 1022 30.18 851 25.13 -3.3 26.1 38 -15.8 3.6
15:40 1022 30.18 851 25.13 -3.2 26.2 38 -15.6 4
15:45 1022 30.18 851 25.13 -3.1 26.4 38 -15.7 3.8
15:50 1022 30.18 851 25.13 -2.6 27.3 36 -15.8 3.6
15:55 1022 30.18 851 25.13 -2.6 27.3 36 -15.7 3.7
16:00 1022 30.18 851 25.13 -2.4 27.8 36 -15.6 3.9
16:05 1022 30.18 851 25.13 -2.5 27.6 36 -15.5 4.2
16:10 1022 30.18 851 25.13 -2.7 27.1 37 -15.6 3.9
16:15 1022 30.18 851 25.13 -3.1 26.5 37 -15.9 3.4
16:20 1021 30.15 851 25.13 -3 26.5 38 -15.6 3.9
16:25 1021 30.15 851 25.13 -3.2 26.2 38 -15.6 3.9
16:30 1021 30.15 851 25.13 -3.3 26 42 -14.6 5.6
16:35 1022 30.18 851 25.13 -3.9 25 44 -14.5 5.9
16:40 1022 30.18 851 25.13 -4.3 24.3 44 -14.9 5.2
16:45 1021 30.15 851 25.13 -4.4 24 45 -14.7 5.5
16:50 1021 30.15 851 25.13 -4.8 23.4 46 -14.7 5.5
16:55 1021 30.15 850 25.1 -4.9 23.2 47 -14.6 5.7
17:00 1021 30.15 850 25.1 -5.1 22.8 47 -14.8 5.4
17:05 1021 30.15 850 25.1 -5.3 22.4 47 -14.9 5.2
17:10 1021 30.15 850 25.1 -5.4 22.2 47 -15.2 4.7
17:15 1021 30.15 850 25.1 -5.4 22.3 46 -15.4 4.3
17:20 1021 30.15 850 25.1 -5.5 22.1 47 -15.2 4.6
17:25 1021 30.15 850 25.1 -5.5 22.1 47 -15.2 4.7
17:30 1021 30.15 850 25.1 -5.4 22.2 48 -14.8 5.4
17:35 1021 30.15 851 25.13 -5.2 22.7 45 -15.3 4.4
17:40 1021 30.15 851 25.13 -5.2 22.6 45 -15.2 4.6
17:45 1021 30.15 851 25.13 -5.3 22.4 47 -14.9 5.2
17:50 1022 30.18 851 25.13 -5.4 22.3 46 -15.2 4.7
17:55 1022 30.18 851 25.13 -5.5 22 50 -14.4 6
18:00 1022 30.18 851 25.13 -5.4 22.3 50 -14.2 6.4
18:05 1022 30.18 851 25.13 -5.5 22.2 51 -14.1 6.7
18:10 1022 30.18 851 25.13 -5.7 21.8 53 -13.9 7
18:15 1021 30.15 851 25.13 -6 21.3 53 -14.2 6.5
18:20 1021 30.15 851 25.13 -6.2 20.9 53 -14.3 6.2
18:25 1021 30.15 851 25.13 -6.4 20.4 54 -14.3 6.2
18:30 1021 30.15 851 25.13 -6.7 19.9 55 -14.4 6.1
18:35 1021 30.15 851 25.13 -7.1 19.3 58 -14 6.8
18:40 1021 30.15 850 25.1 -7.2 19.1 59 -13.9 6.9
18:45 1021 30.15 850 25.1 -7.2 19 60 -13.8 7.2
18:50 1021 30.15 850 25.1 -7.4 18.6 62 -13.5 7.6
18:55 1021 30.15 850 25.1 -7.9 17.7 63 -13.7 7.3
19:00 1021 30.15 851 25.13 -7.8 18 63 -13.6 7.5
19:05 1021 30.15 851 25.13 -7.8 18 61 -14 6.8
19:10 1021 30.15 851 25.13 -8 17.7 62 -14.1 6.6
19:15 1021 30.15 851 25.13 -8.3 17 63 -14.2 6.5
19:20 1021 30.15 851 25.13 -8.5 16.6 64 -14.2 6.4
19:25 1022 30.18 851 25.13 -8.7 16.4 65 -14.2 6.5
19:30 1021 30.15 851 25.13 -8.8 16.1 65 -14.2 6.5
19:35 1021 30.15 851 25.13 -9 15.9 66 -14.1 6.5
19:40 1021 30.15 851 25.13 -8.9 15.9 66 -14.2 6.5
19:45 1021 30.15 851 25.13 -8.8 16.2 65 -14.3 6.3
19:50 1021 30.15 850 25.1 -8.7 16.4 64 -14.2 6.4
19:55 1021 30.15 850 25.1 -8.8 16.2 66 -14.1 6.5
20:00 1021 30.15 850 25.1 -8.4 16.8 63 -14.2 6.5
20:05 1021 30.15 850 25.1 -8.2 17.2 62 -14.2 6.4
20:10 1021 30.15 850 25.1 -8.2 17.3 62 -14.3 6.2
20:15 1021 30.15 850 25.1 -8.5 16.7 63 -14.3 6.2
20:20 1021 30.15 850 25.1 -9.3 15.3 67 -14.4 6.1
20:25 1021 30.15 850 25.1 -9.7 14.6 66 -14.9 5.3
20:30 1021 30.15 850 25.1 -10.1 13.9 66 -15.2 4.6
20:35 1021 30.15 850 25.1 -9.2 15.4 62 -15.3 4.5
20:40 1021 30.15 850 25.1 -8.5 16.8 59 -15.1 4.8
20:45 1021 30.15 850 25.1 -8.5 16.7 59 -15.1 4.9
20:50 1021 30.15 850 25.1 -8.2 17.3 57 -15.3 4.5
20:55 1020 30.12 850 25.1 -8.2 17.3 58 -15.2 4.7
21:00 1020 30.12 850 25.1 -7.7 18.2 54 -15.5 4.1
21:05 1020 30.12 849 25.07 -7.7 18.1 56 -15 5
21:10 1020 30.12 849 25.07 -8.8 16.2 61 -15 5.1
21:15 1020 30.12 849 25.07 -8.9 16 61 -15 4.9
21:20 1020 30.12 849 25.07 -8.6 16.6 61 -14.8 5.4
21:25 1020 30.12 849 25.07 -8.2 17.2 60 -14.7 5.6
21:30 1020 30.12 849 25.07 -7.9 17.7 59 -14.5 5.9
21:35 1020 30.12 849 25.07 -7.6 18.2 59 -14.3 6.3
21:40 1020 30.12 849 25.07 -7.7 18.1 59 -14.5 6
21:45 1020 30.12 849 25.07 -8.5 16.8 61 -14.7 5.6
21:50 1020 30.12 849 25.07 -8.7 16.3 62 -14.8 5.4
21:55 1020 30.12 849 25.07 -8.6 16.6 63 -14.5 6
22:00 1020 30.12 849 25.07 -8.5 16.6 63 -14.3 6.2
22:05 1020 30.12 850 25.1 -7.8 17.9 61 -14.2 6.5
22:10 1020 30.12 850 25.1 -7.2 19 59 -13.9 7
22:15 1020 30.12 850 25.1 -7.7 18.1 60 -14.3 6.2
22:20 1020 30.12 850 25.1 -7.8 18.1 60 -14.3 6.3
22:25 1020 30.12 849 25.07 -7.4 18.6 60 -14 6.9
22:30 1020 30.12 850 25.1 -7.6 18.3 61 -13.8 7.2
22:35 1020 30.12 850 25.1 -7.8 17.9 67 -12.9 8.7
22:40 1020 30.12 850 25.1 -7.5 18.5 58 -14.3 6.3
22:45 1020 30.12 850 25.1 -6.8 19.8 57 -14 6.8
22:50 1020 30.12 850 25.1 -6.9 19.6 58 -13.9 7
22:55 1020 30.12 850 25.1 -8.4 16.9 61 -14.6 5.7
23:00 1020 30.12 849 25.07 -8.9 15.9 63 -14.8 5.4
23:05 1020 30.12 849 25.07 -8.5 16.8 63 -14.4 6.1
23:10 1020 30.12 849 25.07 -8.3 17.1 64 -13.9 7
23:15 1020 30.12 849 25.07 -8.1 17.4 66 -13.5 7.8
23:20 1020 30.12 849 25.07 -8.1 17.5 64 -13.8 7.2
23:25 1020 30.12 849 25.07 -8.2 17.3 63 -14.1 6.6
23:30 1020 30.12 849 25.07 -8 17.7 62 -14 6.9
23:35 1020 30.12 849 25.07 -7.6 18.3 61 -13.9 7
23:40 1020 30.12 849 25.07 -7.6 18.4 61 -13.9 6.9
23:45 1020 30.12 849 25.07 -7.7 18.1 61 -14 6.9
23:50 1020 30.12 849 25.07 -8 17.5 62 -14 6.8
23:55 1020 30.12 849 25.07 -8.3 17 64 -14.1 6.7
24:00 1020 30.12 849 25.07 -8.1 17.5 63 -13.9 7